KOZR/OZR METAR and TAF weather

Enter ICAO airport designator
Station Type Date Time Source
KOZR METAR 2022/12/05 14:55 UTC NOAA

KOZR 051455Z AUTO 12004KT 10SM CLR 16/16 A3011 RMK AO2 SLP198 T01610158 52012


Station Type Date Time Source
KOZR Decoded METAR 2022/12/05 14:55 UTC NOAA

Cairns Army Air Field / Ozark, AL, United States (KOZR) 31-17N 085-43W
Dec 05, 2022 - 09:55 AM EST / 2022.12.05 1455 UTC
Wind: from the ESE (120 degrees) at 5 MPH (4 KT):0
Visibility: 10 mile(s):0
Sky conditions: clear
Temperature: 61.0 F (16.1 C)
Dew Point: 60.4 F (15.8 C)
Relative Humidity: 98%
Pressure (altimeter): 30.11 in. Hg (1019 hPa)
Pressure tendency: 0.04 inches (1.2 hPa) higher than three hours ago
ob: KOZR 051455Z AUTO 12004KT 10SM CLR 16/16 A3011 RMK AO2 SLP198 T01610158 52012
cycle: 15

Station Type Date Time Source
KOZR TAF 2022/12/05 14:57 UTC NOAA

TAF
AMD KOZR 051450Z 0514/0616 VRB04KT 9999 SCT025 SCT120 BKN250 QNH3010INS
BECMG 0516/0517 21006KT 9999 NSW SCT030 SCT120 QNH3002INS
BECMG 0523/0524 19004KT 9999 SCT012 BKN050 QNH3004INS
BECMG 0608/0609 19004KT 9999 BKN008 BKN050 QNH3008INS
TEMPO 0609/0611 3200 BR BKN004
BECMG 0610/0611 19004KT 1600 BR OVC004 QNH3010INS TX22/0519Z TN13/0610Z

Example: see airport list